Latest Coastal Weather Observations for Hobart Airport

IDT60701

Issued at 12:42 pm EDT Thursday 29 October 2020 (issued every 10 minutes, with the page automatically refreshed every 10 minutes)

About coastal observations | Map of coastal stations | Coastal observations for TAS | Marine services | Other Formats
Station Details ID: 094008 Name: HOBART AIRPORT Lat: -42.83 Lon: 147.50 Height: 4.0 m
Data from the previous 72 hours. | See also: Recent months at Hobart Airport
Date/Time
EDT
Wind Sea
Height
m
Swell Vis
km
Cloud Weather Temp
°C
Press
MSL
hPa
Rain since
9am
mm
Dir  Spd
kts
Gust
kts
Height
m
Period
s
Dir
29/12:30pm ESE 7 10 - - - - 10 Mostly clear - 16.1 1014.4 0.0
29/12:00pm ESE 7 11 - - - - 30 Mostly clear Fine 16.0 1014.7 0.0
29/11:30am NE 5 7 - - - - 10 Mostly clear - 15.2 1015.0 0.0
29/11:00am NE 6 7 - - - - 10 Mostly clear - 14.7 1015.2 0.0
29/10:30am NE 5 8 - - - - 10 Mostly clear - 14.5 1015.6 0.0
29/10:00am NNE 5 7 - - - - 10 Mostly clear - 14.2 1015.9 0.0
29/09:30am NE 5 6 - - - - 10 Mostly clear - 13.5 1016.2 0.0
29/09:00am NNW 4 6 - - - - 25 Mostly clear Haze 12.7 1016.5 0.0
29/08:30am NNE 4 6 - - - - 10 Mostly clear - 12.0 1016.6 0.0
29/08:00am NW 4 5 - - - - 10 Mostly clear - 11.3 1016.7 0.0
29/07:30am NW 6 7 - - - - 10 Mostly clear - 10.7 1016.7 0.0
29/07:00am NW 3 6 - - - - 10 Mostly clear - 10.5 1016.8 0.0
29/06:30am NW 3 4 - - - - 10 Mostly clear - 9.3 1016.8 0.0
29/06:00am WNW 5 5 - - - - 25 Mostly cloudy Haze 9.9 1016.9 0.0
29/05:30am WNW 4 5 - - - - 10 Cloudy - 9.9 1017.1 0.0
29/05:00am WNW 4 6 - - - - 10 Cloudy - 9.7 1017.3 0.0
29/04:30am CALM 0 0 - - - - 10 Cloudy - 9.9 1017.3 0.0
29/04:00am CALM 0 0 - - - - 10 Cloudy - 9.7 1017.6 0.0
29/03:30am W 4 5 - - - - 10 Cloudy - 9.9 1018.0 0.0
29/03:00am WNW 3 5 - - - - 10 Cloudy - 10.2 1018.1 0.0
29/02:30am W 2 5 - - - - 10 Cloudy - 10.3 1018.7 0.0
29/02:00am NNW 4 5 - - - - 10 Cloudy - 10.8 1019.0 0.0
29/01:30am NW 4 5 - - - - 10 Cloudy - 10.5 1019.6 0.0
29/01:00am N 4 5 - - - - 10 Cloudy - 10.8 1019.8 0.0
29/12:30am NNW 3 5 - - - - 10 Cloudy - 10.9 1020.3 0.0
29/12:00am CALM 0 0 - - - - 10 Cloudy - 10.8 1020.5 0.0
 
Date/Time
EDT
Wind Sea
Height
m
Swell Vis
km
Cloud Weather Temp
°C
Press
MSL
hPa
Rain since
9am
mm
Dir  Spd
kts
Gust
kts
Height
m
Period
s
Dir
28/11:30pm CALM 0 0 - - - - 10 Cloudy - 11.0 1020.8 0.0
28/11:00pm ENE 5 6 - - - - 10 Cloudy - 10.8 1021.0 0.0
28/10:30pm E 4 6 - - - - 10 Cloudy - 10.3 1021.3 0.0
28/10:00pm ESE 4 6 - - - - 10 Partly cloudy - 10.2 1021.4 0.0
28/09:30pm ENE 6 9 - - - - 10 - - 10.7 1021.5 0.0
28/09:00pm E 6 8 - - - - 10 Mostly clear - 11.2 1021.4 0.0
28/08:30pm E 7 12 - - - - 10 Partly cloudy - 11.8 1021.4 0.0
28/08:00pm E 6 9 - - - - 10 Partly cloudy - 12.5 1021.3 0.0
28/07:30pm E 7 10 - - - - 10 Partly cloudy - 12.8 1021.4 0.0
28/07:00pm E 6 10 - - - - 10 Partly cloudy - 13.2 1021.4 0.0
28/06:30pm ESE 7 11 - - - - 10 Cloudy - 13.4 1021.3 0.0
28/06:00pm ESE 8 12 - - - - 10 Cloudy - 13.9 1021.4 0.0
28/05:30pm E 7 10 - - - - 10 Partly cloudy - 14.0 1021.5 0.0
28/05:00pm ESE 10 15 - - - - 10 Partly cloudy - 14.0 1021.6 0.0
28/04:30pm E 7 10 - - - - 10 Partly cloudy - 14.8 1021.9 0.0
28/04:00pm ENE 9 12 - - - - 10 Mostly clear - 14.4 1022.4 0.0
28/03:30pm ENE 9 15 - - - - 10 Mostly clear - 14.1 1022.7 0.0
28/03:00pm E 10 15 - - - - 35 Mostly cloudy Recent precip. 14.5 1023.1 0.0
28/02:30pm E 10 14 - - - - 10 Mostly clear Showers 14.6 1023.6 0.0
28/02:00pm SSE 14 17 - - - - 10 Mostly clear - 13.4 1024.2 0.0
28/01:30pm S 11 15 - - - - 10 Mostly clear - 13.0 1024.6 0.0
28/01:00pm SSE 10 14 - - - - 10 Mostly clear - 13.3 1025.1 0.0
28/12:30pm SSE 10 13 - - - - 10 Partly cloudy Showers 13.7 1025.5 0.0
28/12:00pm S 7 10 - - - - 22 Mostly cloudy Showers 13.7 1025.9 0.0
28/11:30am SSE 9 12 - - - - 10 Mostly clear Showers 12.3 1026.5 0.0
28/11:00am SE 9 12 - - - - 10 Mostly clear - 12.5 1026.8 0.0
28/10:40am SSE 8 10 - - - - 10 Partly cloudy - 12.7 1026.9 0.0
28/10:30am SSE 8 11 - - - - 10 Mostly clear - 12.5 1026.9 0.0
28/10:22am SSE 5 8 - - - - 10 Partly cloudy - 12.8 1027.0 0.0
28/10:00am SE 4 7 - - - - 10 Mostly clear - 12.3 1027.2 0.0
28/09:30am SSE 4 6 - - - - 10 Mostly clear - 11.4 1027.4 0.0
28/09:00am NNE 3 4 - - - - 35 Mostly cloudy Fine 11.0 1027.6 0.6
28/08:30am E 1 4 - - - - 10 Mostly clear - 10.7 1027.7 0.6
28/08:00am SE 4 5 - - - - 10 Mostly clear - 10.4 1027.7 0.6
28/07:36am E 4 5 - - - - 10 Mostly clear - 9.9 1027.8 0.6
28/07:30am E 4 5 - - - - 10 Mostly clear - 9.9 1027.9 0.6
28/07:27am ENE 4 6 - - - - 10 Mostly clear - 10.0 1027.9 0.6
28/07:11am SSE 1 6 - - - - 5 Mostly clear Drizzle 9.9 1027.9 0.4
28/07:05am CALM 0 0 - - - - 6 Mostly clear Drizzle 9.8 1027.9 0.4
28/07:00am CALM 0 0 - - - - 10 Mostly clear - 9.8 1027.9 0.4
28/06:30am W 3 4 - - - - 10 Mostly clear - 9.4 1027.6 0.4
28/06:00am SSE 1 3 - - - - 35 Mostly cloudy Fine 9.3 1027.5 0.4
28/05:33am CALM 0 2 - - - - 10 Partly cloudy - 9.1 1027.5 0.4
28/05:30am ESE 1 4 - - - - 10 Partly cloudy - 9.2 1027.5 0.4
28/05:02am ESE 4 5 - - - - 6 Partly cloudy - 9.2 1027.6 0.4
28/05:00am ESE 4 5 - - - - 7 Partly cloudy - 9.2 1027.7 0.4
28/04:30am CALM 0 0 - - - - 10 Partly cloudy - 8.7 1027.7 0.4
28/04:08am SW 4 5 - - - - 10 Partly cloudy - 8.7 1027.9 0.4
28/04:00am SSW 5 5 - - - - 10 Partly cloudy - 8.9 1028.1 0.4
28/03:54am SSW 4 5 - - - - 10 Partly cloudy - 8.8 1028.1 0.4
28/03:31am SSW 2 5 - - - - 6 Partly cloudy - 9.3 1028.2 0.4
28/03:30am SSW 2 5 - - - - 6 Partly cloudy - 9.3 1028.2 0.4
28/03:00am CALM 0 0 - - - - 10 Cloudy Drizzle 9.3 1028.4 0.2
28/02:31am SSW 5 6 - - - - 10 Partly cloudy - 9.1 1028.5 0.2
28/02:30am SW 5 6 - - - - 10 Partly cloudy - 9.1 1028.5 0.2
28/02:18am W 4 5 - - - - 6 Partly cloudy - 9.2 1028.7 0.2
28/02:00am SSW 4 5 - - - - 10 Partly cloudy - 9.2 1029.0 0.2
28/01:30am S 1 5 - - - - 10 Partly cloudy - 9.4 1029.4 0.2
28/01:26am CALM 0 0 - - - - 10 Partly cloudy - 9.5 1029.5 0.2
28/01:07am SSE 1 3 - - - - 6 Partly cloudy - 9.5 1029.8 0.2
28/01:00am SSW 1 4 - - - - 10 Partly cloudy - 9.4 1029.8 0.2
28/12:34am SSW 5 5 - - - - 10 Partly cloudy - 9.3 1029.9 0.2
28/12:30am S 5 5 - - - - 10 Partly cloudy - 9.4 1029.9 0.2
28/12:09am CALM 0 0 - - - - 6 Partly cloudy - 9.6 1030.3 0.2
28/12:00am SE 1 3 - - - - 10 Cloudy Drizzle 9.5 1030.2 0.2
 
Date/Time
EDT
Wind Sea
Height
m
Swell Vis
km
Cloud Weather Temp
°C
Press
MSL
hPa
Rain since
9am
mm
Dir  Spd
kts
Gust
kts
Height
m
Period
s
Dir
27/11:41pm SE 3 5 - - - - 8 Partly cloudy - 9.4 1030.4 0.2
27/11:33pm ESE 2 5 - - - - 5 Partly cloudy Drizzle 9.5 1030.5 0.2
27/11:30pm E 1 4 - - - - 10 Partly cloudy Drizzle 9.4 1030.5 0.2
27/11:22pm CALM 0 0 - - - - 8 Partly cloudy Drizzle 9.4 1030.6 0.2
27/11:00pm ESE 5 6 - - - - 5 Mostly clear - 9.5 1030.8 0.0
27/10:56pm ESE 5 6 - - - - 5 Mostly clear Drizzle 9.7 1030.8 0.0
27/10:30pm E 3 4 - - - - 10 Mostly clear - 9.5 1030.9 0.0
27/10:00pm ENE 6 8 - - - - 10 Mostly clear - 9.9 1031.0 0.0
27/09:30pm SE 8 12 - - - - 10 Mostly clear - 10.8 1031.0 0.0
27/09:00pm SE 5 7 - - - - 30 Mostly cloudy Distant precip. 10.9 1031.1 0.0
27/08:30pm SE 5 9 - - - - 10 Mostly clear - 10.9 1031.0 0.0
27/08:00pm SE 9 14 - - - - 10 Mostly clear - 10.8 1030.9 0.0
27/07:30pm ESE 7 9 - - - - 10 Mostly clear - 11.3 1030.7 0.0
27/07:00pm SE 7 11 - - - - 10 Mostly clear - 11.3 1030.8 0.0
27/06:30pm SE 8 11 - - - - 10 Mostly clear - 11.6 1030.6 0.0
27/06:00pm ESE 5 6 - - - - 20 Mostly cloudy Drizzle 11.4 1030.7 0.0
27/05:30pm ESE 5 7 - - - - 10 Partly cloudy Drizzle 11.0 1030.9 0.0
27/05:00pm ESE 8 13 - - - - 10 Partly cloudy - 11.3 1030.9 0.0
27/04:30pm E 7 11 - - - - 10 Partly cloudy - 11.9 1031.0 0.0
27/04:00pm ESE 7 9 - - - - 10 Partly cloudy - 11.5 1031.1 0.0
27/03:30pm SE 8 13 - - - - 10 Partly cloudy - 12.1 1031.3 0.0
27/03:00pm SE 10 15 - - - - 25 Mostly cloudy Haze 12.8 1031.5 0.0
27/02:30pm SE 11 17 - - - - 10 Partly cloudy - 13.1 1031.8 0.0
27/02:00pm SE 10 17 - - - - 10 Partly cloudy - 13.0 1031.9 0.0
27/01:30pm SE 9 14 - - - - 10 Partly cloudy - 12.8 1032.2 0.0
27/01:00pm SE 10 15 - - - - 10 Partly cloudy - 12.4 1032.3 0.0
27/12:30pm SE 9 14 - - - - 10 Partly cloudy - 12.7 1032.6 0.0
27/12:00pm SE 10 14 - - - - 25 Cloudy Haze 12.5 1032.8 0.0
27/11:30am SE 10 14 - - - - 10 Partly cloudy - 12.3 1033.1 0.0
27/11:00am SE 7 12 - - - - 10 Partly cloudy - 12.4 1033.4 0.0
27/10:30am SE 9 12 - - - - 10 Partly cloudy - 12.0 1033.4 0.0
27/10:00am ESE 6 9 - - - - 10 Partly cloudy - 12.0 1033.6 0.0
27/09:30am SE 7 9 - - - - 10 Mostly clear - 11.6 1033.6 0.0
27/09:00am SE 6 9 - - - - 25 Cloudy Haze 11.2 1033.7 0.0
27/08:30am ESE 6 8 - - - - 10 Mostly clear - 11.2 1033.7 0.0
27/08:00am E 6 8 - - - - 10 Mostly clear - 10.8 1033.6 0.0
27/07:30am ESE 5 7 - - - - 10 Mostly clear - 10.8 1033.4 0.0
27/07:00am SE 4 6 - - - - 10 Mostly clear - 10.8 1033.3 0.0
27/06:30am ESE 5 7 - - - - 10 Mostly clear - 10.5 1033.2 0.0
27/06:00am SE 7 13 - - - - 20 Mostly cloudy Drizzle 10.4 1033.0 0.0
27/05:30am SE 6 8 - - - - 10 Cloudy - 10.6 1032.8 0.0
27/05:00am ESE 5 6 - - - - 10 Cloudy - 10.5 1032.7 0.0
27/04:30am ESE 3 5 - - - - 10 Cloudy - 10.3 1032.8 0.0
27/04:00am ESE 5 7 - - - - 10 Cloudy - 10.4 1032.8 0.0
27/03:30am E 3 5 - - - - 10 Cloudy - 10.3 1032.9 0.0
27/03:00am ESE 3 4 - - - - 10 Cloudy - 10.3 1032.9 0.0
27/02:30am E 6 8 - - - - 10 Cloudy - 10.3 1033.0 0.0
27/02:00am ESE 5 7 - - - - 10 Cloudy - 10.4 1033.1 0.0
27/01:30am SE 7 12 - - - - 10 Cloudy - 10.6 1033.3 0.0
27/01:00am SE 7 10 - - - - 10 Cloudy - 10.7 1033.6 0.0
27/12:30am E 4 5 - - - - 10 Cloudy - 10.6 1033.8 0.0
27/12:00am ENE 6 7 - - - - 10 Cloudy - 10.7 1033.9 0.0
 
Date/Time
EDT
Wind Sea
Height
m
Swell Vis
km
Cloud Weather Temp
°C
Press
MSL
hPa
Rain since
9am
mm
Dir  Spd
kts
Gust
kts
Height
m
Period
s
Dir
26/11:30pm ESE 6 9 - - - - 10 Mostly cloudy - 11.0 1033.8 0.0
26/11:00pm SE 6 9 - - - - 10 Mostly cloudy - 11.3 1034.0 0.0
26/10:30pm S 5 7 - - - - 10 Mostly cloudy - 11.2 1034.1 0.0
26/10:00pm SSE 4 6 - - - - 10 Mostly cloudy - 11.0 1034.2 0.0
26/09:30pm SSE 7 9 - - - - 10 Mostly cloudy - 11.2 1034.3 0.0
26/09:00pm SE 7 9 - - - - 25 Mostly cloudy Haze 11.3 1034.0 0.0
26/08:30pm SE 8 12 - - - - 10 Mostly cloudy - 11.3 1033.7 0.0
26/08:00pm SSE 10 13 - - - - 10 Mostly cloudy - 11.4 1033.4 0.0
26/07:30pm SSE 10 15 - - - - 10 Mostly cloudy - 11.5 1033.2 0.0
26/07:00pm SSE 11 14 - - - - 10 Mostly cloudy - 11.6 1033.0 0.0
26/06:30pm SSE 11 15 - - - - 10 Mostly clear - 12.0 1032.9 0.0
26/06:00pm SSE 11 14 - - - - 20 Mostly cloudy Haze 12.6 1032.6 0.0
26/05:30pm SSE 12 16 - - - - 10 Mostly clear - 12.6 1032.5 0.0
26/05:00pm SSE 11 16 - - - - 10 Mostly clear - 12.7 1032.2 0.0
26/04:30pm SSE 14 17 - - - - 10 Mostly clear - 12.2 1032.2 0.0
26/04:00pm SSE 12 16 - - - - 10 Mostly clear - 13.4 1032.3 0.0
26/03:30pm SSE 12 17 - - - - 10 Mostly clear - 12.9 1032.4 0.0
26/03:00pm SSE 12 16 - - - - 20 Mostly cloudy Haze 13.3 1032.6 0.0
26/02:30pm SSE 12 17 - - - - 10 Mostly clear - 13.0 1032.6 0.0
26/02:00pm SSE 13 18 - - - - 10 Mostly clear - 13.1 1032.6 0.0
26/01:30pm S 11 15 - - - - 10 Mostly cloudy - 12.9 1032.5 0.0
26/01:00pm S 11 15 - - - - 10 Mostly cloudy - 13.1 1032.6 0.0

Other formats

Comma delimited format used in spreadsheet applications
http://www.bom.gov.au/fwo/IDT60701/IDT60701.94975.axf

JavaScript Object Notation format (JSON) in row-major order
http://www.bom.gov.au/fwo/IDT60701/IDT60701.94975.json

Data quality

Most of these data are generated automatically and are frequently updated. Quality checks on data are not normally performed. It is possible for incorrect values to appear. Refer to information at About Latest Weather Observations and please check the disclaimer before using these data.